sensor_id;sensor_type;location;lat;lon;timestamp;P1;durP1;ratioP1;P2;durP2;ratioP2
8040;SDS011;4063;48.140;10.250;2022-12-18T00:01:31;37.70;;;23.93;;
8040;SDS011;4063;48.140;10.250;2022-12-18T00:03:58;38.33;;;25.13;;
8040;SDS011;4063;48.140;10.250;2022-12-18T00:06:25;39.33;;;24.43;;
8040;SDS011;4063;48.140;10.250;2022-12-18T00:08:51;38.70;;;24.23;;
8040;SDS011;4063;48.140;10.250;2022-12-18T00:11:18;40.33;;;24.90;;
8040;SDS011;4063;48.140;10.250;2022-12-18T00:13:44;41.23;;;25.40;;
8040;SDS011;4063;48.140;10.250;2022-12-18T00:16:11;38.60;;;24.20;;
8040;SDS011;4063;48.140;10.250;2022-12-18T00:18:38;39.63;;;24.70;;
8040;SDS011;4063;48.140;10.250;2022-12-18T00:21:05;35.50;;;23.83;;
8040;SDS011;4063;48.140;10.250;2022-12-18T00:23:32;36.53;;;23.40;;
8040;SDS011;4063;48.140;10.250;2022-12-18T00:25:59;37.23;;;23.97;;
8040;SDS011;4063;48.140;10.250;2022-12-18T00:28:25;39.63;;;24.87;;
8040;SDS011;4063;48.140;10.250;2022-12-18T00:30:51;35.93;;;23.53;;
8040;SDS011;4063;48.140;10.250;2022-12-18T00:33:17;37.70;;;23.83;;
8040;SDS011;4063;48.140;10.250;2022-12-18T00:35:43;37.30;;;23.47;;
8040;SDS011;4063;48.140;10.250;2022-12-18T00:38:09;40.07;;;24.87;;
8040;SDS011;4063;48.140;10.250;2022-12-18T00:40:35;37.63;;;23.93;;
8040;SDS011;4063;48.140;10.250;2022-12-18T00:43:01;41.43;;;23.20;;
8040;SDS011;4063;48.140;10.250;2022-12-18T00:45:28;42.40;;;24.17;;
8040;SDS011;4063;48.140;10.250;2022-12-18T00:47:54;38.37;;;23.27;;
8040;SDS011;4063;48.140;10.250;2022-12-18T00:50:21;39.80;;;24.43;;
8040;SDS011;4063;48.140;10.250;2022-12-18T00:52:47;42.03;;;26.40;;
8040;SDS011;4063;48.140;10.250;2022-12-18T00:55:13;46.57;;;26.73;;
8040;SDS011;4063;48.140;10.250;2022-12-18T00:57:39;39.43;;;24.07;;
8040;SDS011;4063;48.140;10.250;2022-12-18T01:00:07;46.20;;;26.23;;
8040;SDS011;4063;48.140;10.250;2022-12-18T01:02:33;40.23;;;25.17;;
8040;SDS011;4063;48.140;10.250;2022-12-18T01:04:59;40.27;;;25.00;;
8040;SDS011;4063;48.140;10.250;2022-12-18T01:07:26;41.33;;;25.23;;
8040;SDS011;4063;48.140;10.250;2022-12-18T01:09:52;43.83;;;27.10;;
8040;SDS011;4063;48.140;10.250;2022-12-18T01:12:18;44.43;;;25.30;;
8040;SDS011;4063;48.140;10.250;2022-12-18T01:14:44;39.27;;;24.83;;
8040;SDS011;4063;48.140;10.250;2022-12-18T01:17:10;43.90;;;24.60;;
8040;SDS011;4063;48.140;10.250;2022-12-18T01:19:35;39.53;;;23.83;;
8040;SDS011;4063;48.140;10.250;2022-12-18T01:22:01;39.90;;;23.07;;
8040;SDS011;4063;48.140;10.250;2022-12-18T01:24:28;43.23;;;26.27;;
8040;SDS011;4063;48.140;10.250;2022-12-18T01:26:54;46.07;;;24.47;;
8040;SDS011;4063;48.140;10.250;2022-12-18T01:29:22;43.63;;;24.73;;
8040;SDS011;4063;48.140;10.250;2022-12-18T01:31:48;43.17;;;25.33;;
8040;SDS011;4063;48.140;10.250;2022-12-18T01:34:14;42.30;;;25.20;;
8040;SDS011;4063;48.140;10.250;2022-12-18T01:36:40;44.53;;;26.40;;
8040;SDS011;4063;48.140;10.250;2022-12-18T01:39:07;50.47;;;25.00;;
8040;SDS011;4063;48.140;10.250;2022-12-18T01:41:33;40.07;;;24.60;;
8040;SDS011;4063;48.140;10.250;2022-12-18T01:47:05;41.50;;;25.10;;
8040;SDS011;4063;48.140;10.250;2022-12-18T01:49:31;42.70;;;25.20;;
8040;SDS011;4063;48.140;10.250;2022-12-18T01:51:58;43.47;;;23.63;;
8040;SDS011;4063;48.140;10.250;2022-12-18T01:54:24;39.10;;;24.20;;
8040;SDS011;4063;48.140;10.250;2022-12-18T01:56:49;44.90;;;24.70;;
8040;SDS011;4063;48.140;10.250;2022-12-18T01:59:15;44.57;;;25.50;;
8040;SDS011;4063;48.140;10.250;2022-12-18T02:01:41;44.67;;;24.33;;
8040;SDS011;4063;48.140;10.250;2022-12-18T02:04:21;42.13;;;24.27;;
8040;SDS011;4063;48.140;10.250;2022-12-18T02:06:48;42.93;;;24.70;;
8040;SDS011;4063;48.140;10.250;2022-12-18T02:09:18;41.77;;;24.50;;
8040;SDS011;4063;48.140;10.250;2022-12-18T02:12:05;43.33;;;24.63;;
8040;SDS011;4063;48.140;10.250;2022-12-18T02:14:38;38.77;;;22.77;;
8040;SDS011;4063;48.140;10.250;2022-12-18T02:17:06;43.47;;;25.00;;
8040;SDS011;4063;48.140;10.250;2022-12-18T02:19:57;43.67;;;25.23;;
8040;SDS011;4063;48.140;10.250;2022-12-18T02:25:18;47.77;;;26.50;;
8040;SDS011;4063;48.140;10.250;2022-12-18T02:27:47;44.90;;;25.47;;
8040;SDS011;4063;48.140;10.250;2022-12-18T02:30:13;49.07;;;25.63;;
8040;SDS011;4063;48.140;10.250;2022-12-18T02:32:41;43.57;;;25.50;;
8040;SDS011;4063;48.140;10.250;2022-12-18T02:35:10;45.77;;;25.23;;
8040;SDS011;4063;48.140;10.250;2022-12-18T02:37:37;46.17;;;25.07;;
8040;SDS011;4063;48.140;10.250;2022-12-18T02:40:04;42.40;;;24.17;;
8040;SDS011;4063;48.140;10.250;2022-12-18T02:42:31;47.70;;;27.10;;
8040;SDS011;4063;48.140;10.250;2022-12-18T02:44:58;42.00;;;23.37;;
8040;SDS011;4063;48.140;10.250;2022-12-18T02:47:24;47.83;;;25.47;;
8040;SDS011;4063;48.140;10.250;2022-12-18T02:52:43;38.53;;;22.23;;
8040;SDS011;4063;48.140;10.250;2022-12-18T02:57:45;45.47;;;25.83;;
8040;SDS011;4063;48.140;10.250;2022-12-18T03:00:14;42.60;;;23.50;;
8040;SDS011;4063;48.140;10.250;2022-12-18T03:02:46;42.47;;;23.40;;
8040;SDS011;4063;48.140;10.250;2022-12-18T03:05:15;41.97;;;22.90;;
8040;SDS011;4063;48.140;10.250;2022-12-18T03:07:45;43.90;;;23.93;;
8040;SDS011;4063;48.140;10.250;2022-12-18T03:10:13;44.80;;;22.90;;
8040;SDS011;4063;48.140;10.250;2022-12-18T03:12:42;46.17;;;24.63;;
8040;SDS011;4063;48.140;10.250;2022-12-18T03:18:10;41.00;;;23.13;;
8040;SDS011;4063;48.140;10.250;2022-12-18T03:20:36;43.70;;;22.70;;
8040;SDS011;4063;48.140;10.250;2022-12-18T03:23:08;42.63;;;23.17;;
8040;SDS011;4063;48.140;10.250;2022-12-18T03:25:35;47.70;;;23.67;;
8040;SDS011;4063;48.140;10.250;2022-12-18T03:28:03;43.67;;;23.63;;
8040;SDS011;4063;48.140;10.250;2022-12-18T03:30:31;43.97;;;23.53;;
8040;SDS011;4063;48.140;10.250;2022-12-18T03:35:29;40.17;;;22.63;;
8040;SDS011;4063;48.140;10.250;2022-12-18T03:37:55;39.63;;;22.17;;
8040;SDS011;4063;48.140;10.250;2022-12-18T03:40:22;37.90;;;22.50;;
8040;SDS011;4063;48.140;10.250;2022-12-18T03:42:52;42.53;;;23.87;;
8040;SDS011;4063;48.140;10.250;2022-12-18T03:48:28;42.20;;;22.27;;
8040;SDS011;4063;48.140;10.250;2022-12-18T03:50:56;42.00;;;21.23;;
8040;SDS011;4063;48.140;10.250;2022-12-18T03:53:24;40.67;;;22.50;;
8040;SDS011;4063;48.140;10.250;2022-12-18T03:55:52;41.60;;;22.93;;
8040;SDS011;4063;48.140;10.250;2022-12-18T03:58:23;41.13;;;23.13;;
8040;SDS011;4063;48.140;10.250;2022-12-18T04:00:50;46.43;;;24.13;;
8040;SDS011;4063;48.140;10.250;2022-12-18T04:03:17;43.83;;;23.53;;
8040;SDS011;4063;48.140;10.250;2022-12-18T04:05:44;46.27;;;25.37;;
8040;SDS011;4063;48.140;10.250;2022-12-18T04:08:11;47.97;;;25.27;;
8040;SDS011;4063;48.140;10.250;2022-12-18T04:10:37;41.33;;;23.60;;
8040;SDS011;4063;48.140;10.250;2022-12-18T04:13:03;45.30;;;24.87;;
8040;SDS011;4063;48.140;10.250;2022-12-18T04:15:29;48.00;;;24.10;;
8040;SDS011;4063;48.140;10.250;2022-12-18T04:17:57;43.70;;;25.07;;
8040;SDS011;4063;48.140;10.250;2022-12-18T04:20:23;47.63;;;25.27;;
8040;SDS011;4063;48.140;10.250;2022-12-18T04:22:49;48.40;;;25.43;;
8040;SDS011;4063;48.140;10.250;2022-12-18T04:25:15;47.67;;;23.77;;
8040;SDS011;4063;48.140;10.250;2022-12-18T04:27:41;47.63;;;23.80;;
8040;SDS011;4063;48.140;10.250;2022-12-18T04:30:07;45.60;;;23.83;;
8040;SDS011;4063;48.140;10.250;2022-12-18T04:32:33;41.30;;;22.27;;
8040;SDS011;4063;48.140;10.250;2022-12-18T04:34:59;43.43;;;23.53;;
8040;SDS011;4063;48.140;10.250;2022-12-18T04:37:25;44.50;;;23.57;;
8040;SDS011;4063;48.140;10.250;2022-12-18T04:39:51;48.07;;;24.40;;
8040;SDS011;4063;48.140;10.250;2022-12-18T04:42:17;44.37;;;22.63;;
8040;SDS011;4063;48.140;10.250;2022-12-18T04:44:43;41.07;;;21.83;;
8040;SDS011;4063;48.140;10.250;2022-12-18T04:47:12;46.17;;;24.07;;
8040;SDS011;4063;48.140;10.250;2022-12-18T04:49:38;42.10;;;23.03;;
8040;SDS011;4063;48.140;10.250;2022-12-18T04:52:04;44.60;;;23.20;;
8040;SDS011;4063;48.140;10.250;2022-12-18T04:54:29;52.33;;;26.63;;
8040;SDS011;4063;48.140;10.250;2022-12-18T04:56:58;52.97;;;25.73;;
8040;SDS011;4063;48.140;10.250;2022-12-18T04:59:24;49.90;;;25.60;;
8040;SDS011;4063;48.140;10.250;2022-12-18T05:01:50;50.20;;;25.87;;
8040;SDS011;4063;48.140;10.250;2022-12-18T05:04:18;48.33;;;24.00;;
8040;SDS011;4063;48.140;10.250;2022-12-18T05:06:44;44.80;;;24.83;;
8040;SDS011;4063;48.140;10.250;2022-12-18T05:09:10;40.83;;;23.87;;
8040;SDS011;4063;48.140;10.250;2022-12-18T05:11:38;43.23;;;24.80;;
8040;SDS011;4063;48.140;10.250;2022-12-18T05:14:04;47.00;;;24.83;;
8040;SDS011;4063;48.140;10.250;2022-12-18T05:16:33;44.83;;;24.63;;
8040;SDS011;4063;48.140;10.250;2022-12-18T05:18:59;45.30;;;25.33;;
8040;SDS011;4063;48.140;10.250;2022-12-18T05:21:27;46.17;;;24.07;;
8040;SDS011;4063;48.140;10.250;2022-12-18T05:23:53;49.07;;;25.63;;
8040;SDS011;4063;48.140;10.250;2022-12-18T05:26:19;44.37;;;24.57;;
8040;SDS011;4063;48.140;10.250;2022-12-18T05:28:46;44.40;;;25.43;;
8040;SDS011;4063;48.140;10.250;2022-12-18T05:31:12;47.13;;;26.47;;
8040;SDS011;4063;48.140;10.250;2022-12-18T05:33:38;45.17;;;24.50;;
8040;SDS011;4063;48.140;10.250;2022-12-18T05:36:05;46.33;;;23.47;;
8040;SDS011;4063;48.140;10.250;2022-12-18T05:38:32;40.47;;;22.80;;
8040;SDS011;4063;48.140;10.250;2022-12-18T05:40:58;42.33;;;24.03;;
8040;SDS011;4063;48.140;10.250;2022-12-18T05:43:25;43.13;;;24.50;;
8040;SDS011;4063;48.140;10.250;2022-12-18T05:45:51;42.67;;;24.77;;
8040;SDS011;4063;48.140;10.250;2022-12-18T05:48:20;50.40;;;24.93;;
8040;SDS011;4063;48.140;10.250;2022-12-18T05:50:50;45.47;;;24.83;;
8040;SDS011;4063;48.140;10.250;2022-12-18T05:53:17;43.70;;;25.10;;
8040;SDS011;4063;48.140;10.250;2022-12-18T05:55:47;41.23;;;23.00;;
8040;SDS011;4063;48.140;10.250;2022-12-18T05:58:13;41.67;;;24.17;;
8040;SDS011;4063;48.140;10.250;2022-12-18T06:00:43;44.17;;;24.10;;
8040;SDS011;4063;48.140;10.250;2022-12-18T06:03:09;44.63;;;23.07;;
8040;SDS011;4063;48.140;10.250;2022-12-18T06:05:36;44.83;;;25.27;;
8040;SDS011;4063;48.140;10.250;2022-12-18T06:08:02;48.47;;;23.87;;
8040;SDS011;4063;48.140;10.250;2022-12-18T06:10:29;40.10;;;23.40;;
8040;SDS011;4063;48.140;10.250;2022-12-18T06:12:55;42.27;;;24.17;;
8040;SDS011;4063;48.140;10.250;2022-12-18T06:15:21;46.20;;;24.47;;
8040;SDS011;4063;48.140;10.250;2022-12-18T06:17:47;39.57;;;23.37;;
8040;SDS011;4063;48.140;10.250;2022-12-18T06:20:14;38.97;;;22.93;;
8040;SDS011;4063;48.140;10.250;2022-12-18T06:22:40;40.07;;;22.80;;
8040;SDS011;4063;48.140;10.250;2022-12-18T06:25:06;41.37;;;23.50;;
8040;SDS011;4063;48.140;10.250;2022-12-18T06:27:32;38.33;;;22.73;;
8040;SDS011;4063;48.140;10.250;2022-12-18T06:29:59;37.77;;;20.83;;
8040;SDS011;4063;48.140;10.250;2022-12-18T06:32:25;35.10;;;20.97;;
8040;SDS011;4063;48.140;10.250;2022-12-18T06:34:53;36.90;;;20.97;;
8040;SDS011;4063;48.140;10.250;2022-12-18T06:37:20;34.63;;;20.17;;
8040;SDS011;4063;48.140;10.250;2022-12-18T06:39:47;39.57;;;21.30;;
8040;SDS011;4063;48.140;10.250;2022-12-18T06:42:13;34.13;;;20.77;;
8040;SDS011;4063;48.140;10.250;2022-12-18T06:44:39;34.80;;;20.43;;
8040;SDS011;4063;48.140;10.250;2022-12-18T06:47:05;40.77;;;21.83;;
8040;SDS011;4063;48.140;10.250;2022-12-18T06:49:31;34.63;;;20.27;;
8040;SDS011;4063;48.140;10.250;2022-12-18T06:51:57;37.47;;;20.27;;
8040;SDS011;4063;48.140;10.250;2022-12-18T06:54:23;40.23;;;21.83;;
8040;SDS011;4063;48.140;10.250;2022-12-18T06:56:49;37.43;;;20.33;;
8040;SDS011;4063;48.140;10.250;2022-12-18T06:59:15;39.20;;;20.77;;
8040;SDS011;4063;48.140;10.250;2022-12-18T07:01:41;40.83;;;20.73;;
8040;SDS011;4063;48.140;10.250;2022-12-18T07:04:07;37.90;;;21.43;;
8040;SDS011;4063;48.140;10.250;2022-12-18T07:06:33;36.50;;;21.97;;
8040;SDS011;4063;48.140;10.250;2022-12-18T07:08:59;40.03;;;21.67;;
8040;SDS011;4063;48.140;10.250;2022-12-18T07:11:25;37.70;;;20.50;;
8040;SDS011;4063;48.140;10.250;2022-12-18T07:13:51;39.37;;;20.90;;
8040;SDS011;4063;48.140;10.250;2022-12-18T07:16:18;38.80;;;19.77;;
8040;SDS011;4063;48.140;10.250;2022-12-18T07:18:45;36.97;;;20.83;;
8040;SDS011;4063;48.140;10.250;2022-12-18T07:21:12;34.10;;;20.37;;
8040;SDS011;4063;48.140;10.250;2022-12-18T07:23:38;37.63;;;19.93;;
8040;SDS011;4063;48.140;10.250;2022-12-18T07:26:08;34.50;;;19.80;;
8040;SDS011;4063;48.140;10.250;2022-12-18T07:28:35;34.77;;;19.27;;
8040;SDS011;4063;48.140;10.250;2022-12-18T07:31:12;35.47;;;19.47;;
8040;SDS011;4063;48.140;10.250;2022-12-18T07:33:38;37.13;;;20.57;;
8040;SDS011;4063;48.140;10.250;2022-12-18T07:36:05;31.43;;;18.43;;
8040;SDS011;4063;48.140;10.250;2022-12-18T07:38:32;33.23;;;18.40;;
8040;SDS011;4063;48.140;10.250;2022-12-18T07:41:05;34.77;;;20.60;;
8040;SDS011;4063;48.140;10.250;2022-12-18T07:43:31;38.43;;;20.13;;
8040;SDS011;4063;48.140;10.250;2022-12-18T07:45:57;32.80;;;18.73;;
8040;SDS011;4063;48.140;10.250;2022-12-18T07:48:23;33.47;;;18.73;;
8040;SDS011;4063;48.140;10.250;2022-12-18T07:50:49;34.60;;;19.00;;
8040;SDS011;4063;48.140;10.250;2022-12-18T07:53:15;36.80;;;21.42;;
8040;SDS011;4063;48.140;10.250;2022-12-18T07:55:41;36.87;;;20.77;;
8040;SDS011;4063;48.140;10.250;2022-12-18T07:58:08;35.10;;;19.50;;
8040;SDS011;4063;48.140;10.250;2022-12-18T08:00:34;35.80;;;20.00;;
8040;SDS011;4063;48.140;10.250;2022-12-18T08:03:00;33.20;;;19.20;;
8040;SDS011;4063;48.140;10.250;2022-12-18T08:05:26;33.13;;;19.00;;
8040;SDS011;4063;48.140;10.250;2022-12-18T08:07:54;33.47;;;19.83;;
8040;SDS011;4063;48.140;10.250;2022-12-18T08:10:21;30.57;;;17.97;;
8040;SDS011;4063;48.140;10.250;2022-12-18T08:12:50;34.97;;;18.23;;
8040;SDS011;4063;48.140;10.250;2022-12-18T08:15:17;31.93;;;19.00;;
8040;SDS011;4063;48.140;10.250;2022-12-18T08:17:43;33.63;;;19.03;;
8040;SDS011;4063;48.140;10.250;2022-12-18T08:20:09;34.10;;;18.83;;
8040;SDS011;4063;48.140;10.250;2022-12-18T08:22:36;33.17;;;19.23;;
8040;SDS011;4063;48.140;10.250;2022-12-18T08:25:03;31.73;;;19.10;;
8040;SDS011;4063;48.140;10.250;2022-12-18T08:27:30;33.57;;;18.43;;
8040;SDS011;4063;48.140;10.250;2022-12-18T08:29:56;33.03;;;19.40;;
8040;SDS011;4063;48.140;10.250;2022-12-18T08:32:22;32.60;;;18.30;;
8040;SDS011;4063;48.140;10.250;2022-12-18T08:34:48;30.73;;;18.67;;
8040;SDS011;4063;48.140;10.250;2022-12-18T08:37:14;30.43;;;18.40;;
8040;SDS011;4063;48.140;10.250;2022-12-18T08:39:40;28.67;;;17.43;;
8040;SDS011;4063;48.140;10.250;2022-12-18T08:42:06;31.30;;;17.40;;
8040;SDS011;4063;48.140;10.250;2022-12-18T08:44:51;27.93;;;18.27;;
8040;SDS011;4063;48.140;10.250;2022-12-18T08:47:18;34.13;;;20.73;;
8040;SDS011;4063;48.140;10.250;2022-12-18T08:49:44;31.10;;;18.33;;
8040;SDS011;4063;48.140;10.250;2022-12-18T08:52:10;31.70;;;19.33;;
8040;SDS011;4063;48.140;10.250;2022-12-18T08:54:36;26.93;;;16.47;;
8040;SDS011;4063;48.140;10.250;2022-12-18T08:57:03;30.77;;;18.23;;
8040;SDS011;4063;48.140;10.250;2022-12-18T08:59:29;31.53;;;18.53;;
8040;SDS011;4063;48.140;10.250;2022-12-18T09:01:55;33.57;;;19.07;;
8040;SDS011;4063;48.140;10.250;2022-12-18T09:04:21;31.27;;;18.10;;
8040;SDS011;4063;48.140;10.250;2022-12-18T09:06:47;29.10;;;17.93;;
8040;SDS011;4063;48.140;10.250;2022-12-18T09:09:13;31.47;;;19.10;;
8040;SDS011;4063;48.140;10.250;2022-12-18T09:11:40;30.50;;;18.10;;
8040;SDS011;4063;48.140;10.250;2022-12-18T09:14:06;29.10;;;18.17;;
8040;SDS011;4063;48.140;10.250;2022-12-18T09:16:34;29.33;;;18.00;;
8040;SDS011;4063;48.140;10.250;2022-12-18T09:19:00;33.67;;;20.83;;
8040;SDS011;4063;48.140;10.250;2022-12-18T09:21:27;33.47;;;18.60;;
8040;SDS011;4063;48.140;10.250;2022-12-18T09:23:54;31.73;;;17.90;;
8040;SDS011;4063;48.140;10.250;2022-12-18T09:26:20;29.73;;;18.87;;
8040;SDS011;4063;48.140;10.250;2022-12-18T09:28:47;46.07;;;24.80;;
8040;SDS011;4063;48.140;10.250;2022-12-18T09:31:13;47.87;;;26.17;;
8040;SDS011;4063;48.140;10.250;2022-12-18T09:33:40;49.93;;;31.07;;
8040;SDS011;4063;48.140;10.250;2022-12-18T09:36:06;34.40;;;20.13;;
8040;SDS011;4063;48.140;10.250;2022-12-18T09:38:33;31.67;;;18.63;;
8040;SDS011;4063;48.140;10.250;2022-12-18T09:41:00;29.90;;;18.80;;
8040;SDS011;4063;48.140;10.250;2022-12-18T09:43:51;35.53;;;20.97;;
8040;SDS011;4063;48.140;10.250;2022-12-18T09:46:17;43.40;;;25.90;;
8040;SDS011;4063;48.140;10.250;2022-12-18T09:48:46;30.43;;;19.00;;
8040;SDS011;4063;48.140;10.250;2022-12-18T09:51:18;35.83;;;22.00;;
8040;SDS011;4063;48.140;10.250;2022-12-18T09:53:46;29.80;;;17.33;;
8040;SDS011;4063;48.140;10.250;2022-12-18T09:56:16;32.83;;;19.63;;
8040;SDS011;4063;48.140;10.250;2022-12-18T09:58:45;32.63;;;18.57;;
8040;SDS011;4063;48.140;10.250;2022-12-18T10:01:13;28.40;;;17.27;;
8040;SDS011;4063;48.140;10.250;2022-12-18T10:03:40;28.57;;;17.57;;
8040;SDS011;4063;48.140;10.250;2022-12-18T10:06:07;25.37;;;15.13;;
8040;SDS011;4063;48.140;10.250;2022-12-18T10:08:37;28.83;;;17.60;;
8040;SDS011;4063;48.140;10.250;2022-12-18T10:11:16;27.43;;;17.40;;
8040;SDS011;4063;48.140;10.250;2022-12-18T10:13:47;26.30;;;16.53;;
8040;SDS011;4063;48.140;10.250;2022-12-18T10:16:16;29.73;;;17.13;;
8040;SDS011;4063;48.140;10.250;2022-12-18T10:21:13;25.53;;;16.73;;
8040;SDS011;4063;48.140;10.250;2022-12-18T10:23:54;24.37;;;16.40;;
8040;SDS011;4063;48.140;10.250;2022-12-18T10:26:24;28.37;;;17.33;;
8040;SDS011;4063;48.140;10.250;2022-12-18T10:28:50;25.33;;;16.50;;
8040;SDS011;4063;48.140;10.250;2022-12-18T10:31:21;27.33;;;15.83;;
8040;SDS011;4063;48.140;10.250;2022-12-18T10:33:47;29.57;;;17.23;;
8040;SDS011;4063;48.140;10.250;2022-12-18T10:36:13;26.40;;;16.07;;
8040;SDS011;4063;48.140;10.250;2022-12-18T10:38:39;25.73;;;15.80;;
8040;SDS011;4063;48.140;10.250;2022-12-18T10:41:06;27.10;;;17.23;;
8040;SDS011;4063;48.140;10.250;2022-12-18T10:43:37;28.40;;;17.27;;
8040;SDS011;4063;48.140;10.250;2022-12-18T10:48:36;26.83;;;17.17;;
8040;SDS011;4063;48.140;10.250;2022-12-18T10:51:05;28.27;;;17.90;;
8040;SDS011;4063;48.140;10.250;2022-12-18T10:53:32;31.27;;;20.43;;
8040;SDS011;4063;48.140;10.250;2022-12-18T10:55:58;33.97;;;21.60;;
8040;SDS011;4063;48.140;10.250;2022-12-18T11:01:24;30.70;;;19.03;;
8040;SDS011;4063;48.140;10.250;2022-12-18T11:03:59;25.77;;;16.23;;
8040;SDS011;4063;48.140;10.250;2022-12-18T11:06:25;26.43;;;17.20;;
8040;SDS011;4063;48.140;10.250;2022-12-18T11:09:05;28.53;;;16.57;;
8040;SDS011;4063;48.140;10.250;2022-12-18T11:11:31;32.67;;;20.63;;
8040;SDS011;4063;48.140;10.250;2022-12-18T11:16:33;40.90;;;25.77;;
8040;SDS011;4063;48.140;10.250;2022-12-18T11:21:46;32.97;;;21.67;;
8040;SDS011;4063;48.140;10.250;2022-12-18T11:24:24;28.87;;;18.43;;
8040;SDS011;4063;48.140;10.250;2022-12-18T11:26:53;28.10;;;16.77;;
8040;SDS011;4063;48.140;10.250;2022-12-18T11:29:24;32.33;;;19.50;;
8040;SDS011;4063;48.140;10.250;2022-12-18T11:31:50;30.33;;;20.63;;
8040;SDS011;4063;48.140;10.250;2022-12-18T11:34:50;30.63;;;18.47;;
8040;SDS011;4063;48.140;10.250;2022-12-18T11:37:08;28.23;;;16.97;;
8040;SDS011;4063;48.140;10.250;2022-12-18T11:39:44;28.90;;;17.70;;
8040;SDS011;4063;48.140;10.250;2022-12-18T11:42:24;31.27;;;19.43;;
8040;SDS011;4063;48.140;10.250;2022-12-18T11:47:58;24.80;;;16.43;;
8040;SDS011;4063;48.140;10.250;2022-12-18T11:50:32;28.20;;;17.70;;
8040;SDS011;4063;48.140;10.250;2022-12-18T11:52:59;29.53;;;17.30;;
8040;SDS011;4063;48.140;10.250;2022-12-18T11:55:33;26.60;;;16.07;;
8040;SDS011;4063;48.140;10.250;2022-12-18T12:00:50;25.87;;;16.13;;
8040;SDS011;4063;48.140;10.250;2022-12-18T12:03:38;26.93;;;17.30;;
8040;SDS011;4063;48.140;10.250;2022-12-18T12:11:13;27.30;;;15.97;;
8040;SDS011;4063;48.140;10.250;2022-12-18T12:14:06;26.20;;;16.83;;
8040;SDS011;4063;48.140;10.250;2022-12-18T12:19:10;39.73;;;25.40;;
8040;SDS011;4063;48.140;10.250;2022-12-18T12:21:42;34.80;;;24.23;;
8040;SDS011;4063;48.140;10.250;2022-12-18T12:26:45;27.93;;;17.70;;
8040;SDS011;4063;48.140;10.250;2022-12-18T12:29:27;25.97;;;15.87;;
8040;SDS011;4063;48.140;10.250;2022-12-18T12:39:35;27.50;;;16.87;;
8040;SDS011;4063;48.140;10.250;2022-12-18T12:42:04;27.17;;;16.90;;
8040;SDS011;4063;48.140;10.250;2022-12-18T12:44:51;24.93;;;15.63;;
8040;SDS011;4063;48.140;10.250;2022-12-18T12:47:23;25.10;;;15.93;;
8040;SDS011;4063;48.140;10.250;2022-12-18T12:49:49;24.60;;;15.80;;
8040;SDS011;4063;48.140;10.250;2022-12-18T12:55:01;26.50;;;16.67;;
8040;SDS011;4063;48.140;10.250;2022-12-18T12:57:33;25.00;;;16.47;;
8040;SDS011;4063;48.140;10.250;2022-12-18T13:00:15;24.63;;;15.93;;
8040;SDS011;4063;48.140;10.250;2022-12-18T13:07:47;26.40;;;16.93;;
8040;SDS011;4063;48.140;10.250;2022-12-18T13:13:15;27.80;;;17.17;;
8040;SDS011;4063;48.140;10.250;2022-12-18T13:23:18;26.60;;;15.93;;
8040;SDS011;4063;48.140;10.250;2022-12-18T13:25:44;27.83;;;16.17;;
8040;SDS011;4063;48.140;10.250;2022-12-18T13:28:14;33.17;;;17.57;;
8040;SDS011;4063;48.140;10.250;2022-12-18T13:30:42;27.27;;;17.07;;
8040;SDS011;4063;48.140;10.250;2022-12-18T13:35:42;33.17;;;19.90;;
8040;SDS011;4063;48.140;10.250;2022-12-18T13:43:22;25.37;;;15.93;;
8040;SDS011;4063;48.140;10.250;2022-12-18T13:46:02;30.83;;;18.17;;
8040;SDS011;4063;48.140;10.250;2022-12-18T13:48:29;27.50;;;17.33;;
8040;SDS011;4063;48.140;10.250;2022-12-18T13:51:06;30.30;;;16.93;;
8040;SDS011;4063;48.140;10.250;2022-12-18T13:53:33;28.30;;;18.73;;
8040;SDS011;4063;48.140;10.250;2022-12-18T13:56:00;28.07;;;17.23;;
8040;SDS011;4063;48.140;10.250;2022-12-18T13:58:26;29.83;;;18.10;;
8040;SDS011;4063;48.140;10.250;2022-12-18T14:00:52;30.90;;;18.77;;
8040;SDS011;4063;48.140;10.250;2022-12-18T14:03:19;51.77;;;27.23;;
8040;SDS011;4063;48.140;10.250;2022-12-18T14:05:45;29.20;;;17.33;;
8040;SDS011;4063;48.140;10.250;2022-12-18T14:08:17;35.20;;;18.40;;
8040;SDS011;4063;48.140;10.250;2022-12-18T14:10:45;32.20;;;17.83;;
8040;SDS011;4063;48.140;10.250;2022-12-18T14:13:15;34.00;;;19.70;;
8040;SDS011;4063;48.140;10.250;2022-12-18T14:15:42;31.43;;;19.20;;
8040;SDS011;4063;48.140;10.250;2022-12-18T14:20:35;37.10;;;21.70;;
8040;SDS011;4063;48.140;10.250;2022-12-18T14:23:01;28.13;;;17.37;;
8040;SDS011;4063;48.140;10.250;2022-12-18T14:25:28;24.90;;;16.67;;
8040;SDS011;4063;48.140;10.250;2022-12-18T14:30:36;26.53;;;15.87;;
8040;SDS011;4063;48.140;10.250;2022-12-18T14:35:35;28.63;;;15.50;;
8040;SDS011;4063;48.140;10.250;2022-12-18T14:38:10;31.03;;;17.90;;
8040;SDS011;4063;48.140;10.250;2022-12-18T14:40:36;28.40;;;16.63;;
8040;SDS011;4063;48.140;10.250;2022-12-18T14:43:02;31.60;;;19.27;;
8040;SDS011;4063;48.140;10.250;2022-12-18T14:47:58;27.30;;;17.57;;
8040;SDS011;4063;48.140;10.250;2022-12-18T14:50:24;30.10;;;17.33;;
8040;SDS011;4063;48.140;10.250;2022-12-18T14:52:51;27.60;;;18.10;;
8040;SDS011;4063;48.140;10.250;2022-12-18T14:55:17;27.20;;;17.27;;
8040;SDS011;4063;48.140;10.250;2022-12-18T14:57:44;26.67;;;16.70;;
8040;SDS011;4063;48.140;10.250;2022-12-18T15:00:21;26.77;;;16.60;;
8040;SDS011;4063;48.140;10.250;2022-12-18T15:02:50;29.53;;;17.90;;
8040;SDS011;4063;48.140;10.250;2022-12-18T15:05:19;26.20;;;17.50;;
8040;SDS011;4063;48.140;10.250;2022-12-18T15:07:48;26.93;;;16.00;;
8040;SDS011;4063;48.140;10.250;2022-12-18T15:12:44;27.87;;;15.63;;
8040;SDS011;4063;48.140;10.250;2022-12-18T15:17:58;27.07;;;16.97;;
8040;SDS011;4063;48.140;10.250;2022-12-18T15:20:24;27.47;;;15.80;;
8040;SDS011;4063;48.140;10.250;2022-12-18T15:22:50;39.17;;;22.97;;
8040;SDS011;4063;48.140;10.250;2022-12-18T15:25:34;45.73;;;24.60;;
8040;SDS011;4063;48.140;10.250;2022-12-18T15:28:04;43.97;;;23.73;;
8040;SDS011;4063;48.140;10.250;2022-12-18T15:30:57;41.63;;;22.87;;
8040;SDS011;4063;48.140;10.250;2022-12-18T15:33:24;35.10;;;20.73;;
8040;SDS011;4063;48.140;10.250;2022-12-18T15:35:57;34.67;;;20.70;;
8040;SDS011;4063;48.140;10.250;2022-12-18T15:38:23;32.00;;;20.70;;
8040;SDS011;4063;48.140;10.250;2022-12-18T15:40:49;35.73;;;20.67;;
8040;SDS011;4063;48.140;10.250;2022-12-18T15:43:15;40.20;;;21.40;;
8040;SDS011;4063;48.140;10.250;2022-12-18T15:46:00;36.90;;;21.20;;
8040;SDS011;4063;48.140;10.250;2022-12-18T15:48:26;38.00;;;21.77;;
8040;SDS011;4063;48.140;10.250;2022-12-18T15:50:52;36.97;;;19.30;;
8040;SDS011;4063;48.140;10.250;2022-12-18T15:53:20;37.10;;;20.77;;
8040;SDS011;4063;48.140;10.250;2022-12-18T15:55:46;37.07;;;19.53;;
8040;SDS011;4063;48.140;10.250;2022-12-18T15:58:30;37.27;;;19.70;;
8040;SDS011;4063;48.140;10.250;2022-12-18T16:00:57;35.57;;;19.37;;
8040;SDS011;4063;48.140;10.250;2022-12-18T16:03:24;36.30;;;20.30;;
8040;SDS011;4063;48.140;10.250;2022-12-18T16:05:50;36.53;;;20.53;;
8040;SDS011;4063;48.140;10.250;2022-12-18T16:08:16;38.57;;;19.73;;
8040;SDS011;4063;48.140;10.250;2022-12-18T16:10:42;35.40;;;21.17;;
8040;SDS011;4063;48.140;10.250;2022-12-18T16:13:11;40.13;;;21.47;;
8040;SDS011;4063;48.140;10.250;2022-12-18T16:15:38;37.27;;;20.30;;
8040;SDS011;4063;48.140;10.250;2022-12-18T16:18:04;39.47;;;21.10;;